Ashland, West Virginia
Current Conditions -  °F | °C
As of 9:19 AM on Thursday 27 Nov 2014 (Local Time) from KBLF Reporting Station
Light Snow Light Snow  
Wind Chill: 26°   Ceiling: 800
Heat Index: 33°   Visibility: 2mi
Dew Point: 28°   Wind: 8mph
Humidity: 82%   Direction: 320°NW
Pressure: 30.02"   Gusts: NA
Location:  37.3807°N, 81.4099°W
Report Text: KBLF 271419Z AUTO 32007KT 2SM -SN BKN008 BKN013 OVC038 01/M02 A3002 RMK AO2 SNE06B09 P0000 T00061022 $
Loading
Personal Weather Stations






























Interactive Weather Map New forecast layout! Learn more

10-Day Weather Forecast

Advertisements
Track Severe Weather on mobile